Time;durP1;ratioP1;P1;durP2;ratioP2;P2;SDS_P1;SDS_P2;PMS_P1;PMS_P2;Temp;Humidity;BMP_temperature;BMP_pressure;BME280_temperature;BME280_humidity;BME280_pressure;Samples;Min_cycle;Max_cycle;Signal;HPM_P1;HPM_P2
2022/02/26 00:02:05;;;;;;;9.95;3.45;;;;;;;1.64;88.49;97318.56;5089781;28;20679;-81
2022/02/26 00:04:32;;;;;;;8.05;2.92;;;;;;;1.63;89.81;97316.94;5089433;28;20499;-82
2022/02/26 00:07:01;;;;;;;7.38;3.05;;;;;;;1.58;89.96;97324.88;5090083;28;20048;-81
2022/02/26 00:09:28;;;;;;;11.50;3.20;;;;;;;1.59;90.76;97323.81;5089200;28;20442;-81
2022/02/26 00:11:55;;;;;;;12.30;3.90;;;;;;;1.55;90.74;97322.66;5088994;28;20402;-81
2022/02/26 00:14:21;;;;;;;10.00;3.33;;;;;;;1.60;91.13;97330.81;5089247;28;21087;-81
2022/02/26 00:16:48;;;;;;;8.45;3.28;;;;;;;1.60;90.87;97325.44;5089555;28;20056;-81
2022/02/26 00:19:14;;;;;;;9.85;3.90;;;;;;;1.66;88.89;97337.91;5089374;28;20048;-81
2022/02/26 00:21:41;;;;;;;12.10;3.30;;;;;;;1.72;87.91;97339.69;5088686;28;20077;-81
2022/02/26 00:24:09;;;;;;;7.53;3.22;;;;;;;1.74;86.96;97337.56;5089470;28;20052;-81
2022/02/26 00:26:35;;;;;;;10.70;3.50;;;;;;;1.77;86.97;97347.00;5088778;28;20044;-81
2022/02/26 00:29:03;;;;;;;7.72;3.72;;;;;;;1.80;86.59;97347.34;5089198;28;20075;-81
2022/02/26 00:31:29;;;;;;;9.93;3.50;;;;;;;1.79;87.03;97351.09;5089174;28;20044;-81
2022/02/26 00:33:56;;;;;;;10.48;3.72;;;;;;;1.72;87.79;97353.13;5089156;28;20051;-80
2022/02/26 00:36:23;;;;;;;10.80;4.07;;;;;;;1.77;88.97;97358.56;5088204;28;20051;-81
2022/02/26 00:38:49;;;;;;;9.57;4.07;;;;;;;1.78;89.64;97360.22;5088891;28;20044;-82
2022/02/26 00:41:17;;;;;;;7.95;4.22;;;;;;;1.86;89.11;97369.75;5088837;28;20055;-81
2022/02/26 00:43:44;;;;;;;8.20;3.78;;;;;;;1.85;88.65;97364.63;5088606;28;20044;-80
2022/02/26 00:46:10;;;;;;;7.35;3.95;;;;;;;1.91;86.80;97369.88;5089132;28;20044;-80
2022/02/26 00:51:22;;;;;;;10.40;3.67;;;;;;;2.01;85.72;97371.94;5089342;28;20121;-81
2022/02/26 00:53:49;;;;;;;10.93;4.00;;;;;;;2.06;85.11;97372.84;5088946;28;20052;-79
2022/02/26 00:56:17;;;;;;;6.75;3.08;;;;;;;1.99;84.73;97366.81;5089174;28;20051;-78
2022/02/26 00:58:43;;;;;;;7.70;3.50;;;;;;;2.05;84.37;97376.59;5089784;28;20539;-79
2022/02/26 01:01:10;;;;;;;8.35;4.07;;;;;;;2.12;85.12;97381.81;5089013;28;20051;-79
2022/02/26 01:03:36;;;;;;;10.27;4.10;;;;;;;2.08;84.57;97380.66;5089352;28;20051;-79
2022/02/26 01:06:03;;;;;;;14.13;3.67;;;;;;;2.06;84.43;97377.41;5088774;28;20716;-79
2022/02/26 01:08:29;;;;;;;9.10;3.70;;;;;;;2.08;84.45;97384.16;5090046;28;20513;-79
2022/02/26 01:10:56;;;;;;;5.60;3.60;;;;;;;2.02;84.59;97389.69;5088308;28;20063;-82
2022/02/26 01:13:24;;;;;;;8.43;4.00;;;;;;;1.96;84.97;97382.59;5088631;28;20481;-81
2022/02/26 01:15:50;;;;;;;7.65;3.42;;;;;;;1.89;84.94;97387.28;5089267;28;20048;-78
2022/02/26 01:18:17;;;;;;;12.98;3.67;;;;;;;1.93;84.57;97385.72;5089035;28;20044;-78
2022/02/26 01:20:43;;;;;;;8.95;3.65;;;;;;;2.02;84.68;97387.81;5088474;28;20048;-79
2022/02/26 01:23:10;;;;;;;12.32;3.95;;;;;;;2.03;84.40;97380.56;5088937;28;20300;-79
2022/02/26 01:25:36;;;;;;;9.45;3.75;;;;;;;2.05;84.04;97387.34;5089111;28;20066;-79
2022/02/26 01:28:03;;;;;;;8.60;3.80;;;;;;;2.09;83.98;97387.69;5087714;28;20071;-79
2022/02/26 01:30:31;;;;;;;7.15;3.50;;;;;;;2.13;84.00;97396.06;5089020;28;20044;-79
2022/02/26 01:32:58;;;;;;;11.95;3.80;;;;;;;2.05;84.06;97381.97;5087993;28;20048;-81
2022/02/26 01:35:24;;;;;;;10.35;3.55;;;;;;;2.13;83.32;97394.22;5088437;28;20047;-81
2022/02/26 01:37:51;;;;;;;12.27;4.45;;;;;;;2.12;83.93;97387.19;5087789;28;20058;-79
2022/02/26 01:40:18;;;;;;;12.18;4.25;;;;;;;2.13;84.35;97386.16;5088175;28;20857;-79
2022/02/26 01:42:44;;;;;;;12.98;3.90;;;;;;;2.15;84.04;97394.00;5087970;28;20052;-79
2022/02/26 01:45:12;;;;;;;8.80;4.10;;;;;;;2.12;84.77;97384.53;5087415;28;20055;-79
2022/02/26 01:47:40;;;;;;;8.77;4.03;;;;;;;2.13;85.21;97388.84;5087679;28;20047;-79
2022/02/26 01:50:08;;;;;;;8.20;3.65;;;;;;;2.11;83.68;97388.25;5086899;28;20059;-81
2022/02/26 01:52:36;;;;;;;15.85;4.00;;;;;;;2.11;83.25;97380.19;5087888;28;20506;-79
2022/02/26 01:55:03;;;;;;;10.88;3.70;;;;;;;2.09;82.99;97376.94;5086506;28;20059;-79
2022/02/26 01:57:30;;;;;;;12.70;4.10;;;;;;;2.01;83.31;97382.69;5088041;28;20048;-81
2022/02/26 01:59:56;;;;;;;10.63;3.83;;;;;;;2.02;83.16;97387.00;5087212;28;20059;-79
2022/02/26 02:02:23;;;;;;;12.13;3.80;;;;;;;2.05;82.89;97387.34;5087141;28;20048;-79
2022/02/26 02:04:51;;;;;;;12.02;4.05;;;;;;;2.05;82.88;97391.91;5087981;28;20056;-78
2022/02/26 02:07:18;;;;;;;9.18;4.03;;;;;;;2.06;83.40;97393.53;5086761;28;20406;-78
2022/02/26 02:09:45;;;;;;;10.98;4.07;;;;;;;2.05;83.04;97392.72;5087325;28;20044;-79
2022/02/26 02:12:12;;;;;;;10.63;4.05;;;;;;;2.02;82.76;97392.38;5086789;28;20525;-81
2022/02/26 02:14:38;;;;;;;9.98;3.72;;;;;;;2.07;82.85;97384.41;5088100;28;20048;-82
2022/02/26 02:17:05;;;;;;;11.40;3.85;;;;;;;2.06;83.27;97401.59;5086992;28;20044;-79
2022/02/26 02:19:32;;;;;;;10.85;4.00;;;;;;;2.02;85.62;97403.13;5088229;28;20426;-80
2022/02/26 02:22:03;;;;;;;9.70;4.63;;;;;;;1.94;87.24;97395.44;5086952;28;20059;-79
2022/02/26 02:24:30;;;;;;;7.57;4.25;;;;;;;1.91;88.31;97398.59;5087858;28;20044;-79
2022/02/26 02:26:57;;;;;;;11.50;4.40;;;;;;;1.90;89.92;97396.97;5086973;28;20644;-79
2022/02/26 02:29:24;;;;;;;12.02;4.65;;;;;;;1.87;90.23;97400.13;5086676;28;20048;-78
2022/02/26 02:31:50;;;;;;;10.43;4.32;;;;;;;1.78;90.02;97403.19;5086871;28;20051;-79
2022/02/26 02:34:17;;;;;;;13.90;4.85;;;;;;;1.81;91.15;97402.69;5086442;28;20051;-79
2022/02/26 02:36:44;;;;;;;12.65;4.65;;;;;;;1.83;91.68;97400.59;5087359;28;20048;-79
2022/02/26 02:39:13;;;;;;;10.52;4.60;;;;;;;1.80;91.50;97406.44;5086655;28;20048;-79
2022/02/26 02:41:40;;;;;;;9.23;4.30;;;;;;;1.78;91.09;97403.19;5088228;28;20048;-79
2022/02/26 02:44:09;;;;;;;10.40;4.68;;;;;;;1.78;91.07;97405.88;5066398;28;20056;-79
2022/02/26 02:46:35;;;;;;;14.30;5.00;;;;;;;1.82;91.41;97409.69;5067951;28;20091;-79
2022/02/26 02:49:02;;;;;;;10.30;4.75;;;;;;;1.78;90.51;97408.56;5066122;28;20060;-80
2022/02/26 02:51:28;;;;;;;9.18;4.80;;;;;;;1.84;87.04;97404.09;5067069;28;20044;-79
2022/02/26 02:53:55;;;;;;;11.07;4.13;;;;;;;1.88;87.36;97417.84;5066708;28;20041;-79
2022/02/26 02:56:23;;;;;;;10.75;4.88;;;;;;;1.86;88.50;97425.34;5066604;28;20056;-78
2022/02/26 02:58:49;;;;;;;11.90;4.30;;;;;;;1.82;88.88;97420.44;5067685;28;20043;-80
2022/02/26 03:01:16;;;;;;;11.68;5.00;;;;;;;1.81;88.84;97429.53;5066127;28;20056;-80
2022/02/26 03:03:43;;;;;;;10.50;4.78;;;;;;;1.85;89.07;97423.72;5067535;28;20044;-79
2022/02/26 03:06:10;;;;;;;10.93;4.53;;;;;;;1.84;89.69;97436.34;5066905;28;20041;-80
2022/02/26 03:08:36;;;;;;;7.85;4.63;;;;;;;1.85;90.55;97429.09;5068020;28;20106;-79
2022/02/26 03:11:03;;;;;;;9.75;4.13;;;;;;;1.83;90.48;97432.84;5065676;28;20430;-80
2022/02/26 03:13:32;;;;;;;12.05;4.53;;;;;;;1.84;90.31;97444.38;5084493;28;20055;-80
2022/02/26 03:15:59;;;;;;;8.63;4.60;;;;;;;1.87;86.96;97437.72;5087015;28;20094;-80
2022/02/26 03:18:27;;;;;;;8.25;4.70;;;;;;;1.92;86.24;97440.50;5086999;28;20141;-80
2022/02/26 03:20:54;;;;;;;11.35;4.00;;;;;;;1.90;86.04;97437.25;5090224;28;20063;-80
2022/02/26 03:23:20;;;;;;;11.07;4.85;;;;;;;1.91;85.66;97436.19;5090021;28;20051;-80
2022/02/26 03:25:47;;;;;;;11.18;4.28;;;;;;;1.89;87.18;97452.56;5091202;28;20048;-79
2022/02/26 03:28:13;;;;;;;9.00;4.60;;;;;;;1.83;86.87;97448.94;5089825;28;20047;-79
2022/02/26 03:30:41;;;;;;;10.82;4.70;;;;;;;1.85;87.40;97455.94;5091109;28;20048;-82
2022/02/26 03:33:08;;;;;;;10.32;4.70;;;;;;;1.89;85.91;97457.13;5089630;28;20044;-80
2022/02/26 03:35:34;;;;;;;11.57;4.90;;;;;;;1.90;87.43;97453.38;5090871;28;20608;-80
2022/02/26 03:38:01;;;;;;;10.85;4.65;;;;;;;1.86;88.20;97462.94;5090210;28;20059;-80
2022/02/26 03:40:28;;;;;;;9.98;4.70;;;;;;;1.80;86.82;97465.53;5090230;28;20764;-79
2022/02/26 03:42:54;;;;;;;12.77;5.00;;;;;;;1.89;88.80;97471.34;5080915;28;20466;-80
2022/02/26 03:45:22;;;;;;;9.60;4.72;;;;;;;1.88;89.27;97471.56;5090455;28;20502;-79
2022/02/26 03:47:50;;;;;;;13.07;4.57;;;;;;;1.80;88.62;97470.88;5090798;28;20056;-80
2022/02/26 03:50:17;;;;;;;9.32;4.65;;;;;;;1.82;89.44;97479.50;5089853;28;20048;-79
2022/02/26 03:52:44;;;;;;;10.20;5.20;;;;;;;1.81;89.91;97472.50;5091231;28;20067;-79
2022/02/26 03:55:11;;;;;;;8.52;4.53;;;;;;;1.83;89.41;97475.81;5089573;28;20048;-79
2022/02/26 03:57:38;;;;;;;8.70;4.38;;;;;;;1.88;88.55;97477.78;5090980;28;20438;-80
2022/02/26 04:00:06;;;;;;;12.85;4.32;;;;;;;1.91;86.29;97482.69;5089796;28;20127;-79
2022/02/26 04:02:34;;;;;;;8.75;4.45;;;;;;;2.00;85.47;97483.16;5090281;28;20054;-79
2022/02/26 04:05:02;;;;;;;9.43;4.90;;;;;;;1.98;85.08;97483.34;5090076;28;20063;-80
2022/02/26 04:07:28;;;;;;;8.98;4.40;;;;;;;1.96;86.53;97487.34;5089622;28;20051;-79
2022/02/26 04:09:55;;;;;;;8.75;4.75;;;;;;;1.90;87.57;97494.47;5089290;28;20064;-79
2022/02/26 04:12:21;;;;;;;10.90;4.50;;;;;;;1.91;88.64;97492.59;5088662;28;20048;-79
2022/02/26 04:14:48;;;;;;;11.20;4.57;;;;;;;1.89;89.21;97502.78;5090988;28;20054;-80
2022/02/26 04:17:14;;;;;;;12.88;4.60;;;;;;;1.90;89.71;97496.34;5089644;28;20753;-79
2022/02/26 04:19:42;;;;;;;8.32;4.22;;;;;;;1.92;88.94;97510.34;5090500;28;20047;-80
2022/02/26 04:22:10;;;;;;;8.55;4.53;;;;;;;1.89;88.72;97510.84;5088866;28;20080;-79
2022/02/26 04:24:37;;;;;;;9.55;4.10;;;;;;;1.85;89.16;97510.47;5090636;28;20048;-80
2022/02/26 04:27:04;;;;;;;7.35;4.32;;;;;;;1.91;87.41;97508.72;5089965;28;20056;-79
2022/02/26 04:29:30;;;;;;;9.07;4.18;;;;;;;1.86;87.25;97512.09;5090155;28;20059;-78
2022/02/26 04:31:57;;;;;;;9.68;4.50;;;;;;;1.88;87.88;97514.53;5090359;28;20047;-80
2022/02/26 04:34:24;;;;;;;10.18;4.97;;;;;;;1.85;88.37;97515.84;5089527;28;20051;-80
2022/02/26 04:36:50;;;;;;;10.55;4.57;;;;;;;1.88;88.14;97510.03;5090933;28;20052;-79
2022/02/26 04:39:18;;;;;;;12.15;4.60;;;;;;;1.91;84.76;97519.47;5088967;28;20048;-80
2022/02/26 04:41:45;;;;;;;11.40;3.90;;;;;;;2.02;83.54;97516.78;5092123;28;20044;-80
2022/02/26 04:44:11;;;;;;;7.95;4.15;;;;;;;2.08;83.60;97520.38;5089310;28;20070;-80
2022/02/26 04:46:38;;;;;;;8.63;3.83;;;;;;;1.93;83.56;97520.03;5090437;28;20051;-80
2022/02/26 04:49:05;;;;;;;8.35;4.15;;;;;;;1.77;83.99;97518.88;5088597;28;20402;-80
2022/02/26 04:51:31;;;;;;;10.05;4.18;;;;;;;1.81;83.66;97530.78;5088822;28;20051;-79
2022/02/26 04:53:58;;;;;;;10.02;3.55;;;;;;;1.87;83.85;97529.03;5089446;28;20044;-80
2022/02/26 04:56:26;;;;;;;7.95;3.45;;;;;;;1.96;83.89;97527.63;5088911;28;20043;-79
2022/02/26 04:58:52;;;;;;;13.18;4.13;;;;;;;1.91;84.71;97535.59;5089721;28;20102;-79
2022/02/26 05:01:19;;;;;;;11.35;3.92;;;;;;;1.88;84.09;97538.72;5088566;28;20050;-81
2022/02/26 05:03:45;;;;;;;8.50;4.22;;;;;;;1.82;83.68;97538.59;5090216;28;20051;-79
2022/02/26 05:06:12;;;;;;;7.45;3.80;;;;;;;1.80;85.02;97535.34;5088759;28;20044;-80
2022/02/26 05:08:39;;;;;;;12.30;5.15;;;;;;;1.81;86.15;97542.34;5090267;28;20047;-79
2022/02/26 05:11:05;;;;;;;11.68;4.45;;;;;;;1.81;86.48;97541.53;5088423;28;20044;-79
2022/02/26 05:13:33;;;;;;;9.15;4.10;;;;;;;1.80;85.83;97540.72;5078761;28;20498;-80
2022/02/26 05:16:00;;;;;;;9.68;4.00;;;;;;;1.87;85.72;97545.16;5089932;28;20050;-79
2022/02/26 05:18:26;;;;;;;17.33;4.68;;;;;;;1.92;85.15;97547.97;5089046;28;20042;-79
2022/02/26 05:20:53;;;;;;;9.80;4.00;;;;;;;1.99;84.20;97554.03;5070199;28;20511;-79
2022/02/26 05:23:19;;;;;;;9.15;3.90;;;;;;;2.02;82.96;97558.94;5088872;28;20051;-79
2022/02/26 05:25:46;;;;;;;11.70;4.28;;;;;;;2.00;83.45;97553.00;5089105;28;20055;-80
2022/02/26 05:28:12;;;;;;;11.43;4.00;;;;;;;2.02;83.99;97548.19;5087932;28;20044;-80
2022/02/26 05:30:40;;;;;;;9.65;4.47;;;;;;;2.02;83.23;97553.56;5088350;28;20055;-79
2022/02/26 05:33:07;;;;;;;13.32;3.40;;;;;;;2.06;83.34;97560.13;5087542;28;20052;-80
2022/02/26 05:35:33;;;;;;;8.05;3.90;;;;;;;2.09;83.14;97560.47;5088965;28;20047;-79
2022/02/26 05:38:00;;;;;;;11.35;3.90;;;;;;;2.09;83.29;97565.84;5088424;28;20063;-79
2022/02/26 05:40:26;;;;;;;7.80;4.07;;;;;;;2.03;83.52;97561.38;5088414;28;20044;-79
2022/02/26 05:42:53;;;;;;;6.78;3.88;;;;;;;2.01;83.91;97571.56;5087244;28;20679;-79
2022/02/26 05:45:20;;;;;;;10.90;4.18;;;;;;;1.97;84.47;97566.88;5087442;28;20046;-79
2022/02/26 05:47:48;;;;;;;9.57;4.32;;;;;;;1.89;84.93;97578.81;5088260;28;20059;-79
2022/02/26 05:50:15;;;;;;;10.25;4.78;;;;;;;1.92;84.81;97581.00;5086936;28;20044;-79
2022/02/26 05:52:41;;;;;;;10.32;4.68;;;;;;;2.02;84.35;97580.44;5088569;28;20044;-79
2022/02/26 05:55:09;;;;;;;9.82;4.75;;;;;;;2.02;84.43;97580.44;5087242;28;20056;-79
2022/02/26 05:57:35;;;;;;;10.43;4.28;;;;;;;2.00;85.74;97587.91;5088994;28;20044;-79
2022/02/26 06:00:02;;;;;;;9.32;4.22;;;;;;;1.92;86.42;97591.75;5087414;28;20043;-80
2022/02/26 06:02:28;;;;;;;9.98;4.35;;;;;;;1.86;87.14;97591.88;5088100;28;20043;-78
2022/02/26 06:04:56;;;;;;;10.70;4.80;;;;;;;1.81;87.00;97590.69;5086637;28;20051;-80
2022/02/26 06:07:23;;;;;;;7.68;4.07;;;;;;;1.88;86.06;97595.13;5087383;28;20058;-79
2022/02/26 06:09:49;;;;;;;9.73;4.43;;;;;;;1.97;85.27;97591.06;5087859;28;20081;-79
2022/02/26 06:12:16;;;;;;;9.27;4.50;;;;;;;2.03;84.81;97598.19;5086450;28;20068;-78
2022/02/26 06:14:42;;;;;;;11.32;4.20;;;;;;;2.01;84.73;97597.59;5087327;28;20055;-79
2022/02/26 06:17:09;;;;;;;8.75;4.80;;;;;;;2.01;84.73;97605.66;5085893;28;20055;-79
2022/02/26 06:19:35;;;;;;;9.27;4.22;;;;;;;2.01;85.04;97606.47;5088177;28;20047;-79
2022/02/26 06:22:03;;;;;;;7.45;4.00;;;;;;;1.98;84.74;97622.22;5086839;28;20055;-79
2022/02/26 06:24:30;;;;;;;7.50;4.05;;;;;;;1.92;85.18;97612.41;5088768;28;20532;-80
2022/02/26 06:26:57;;;;;;;8.95;4.40;;;;;;;1.93;85.63;97616.75;5087897;28;20044;-80
2022/02/26 06:29:23;;;;;;;10.98;4.35;;;;;;;2.00;85.48;97625.53;5089049;28;20509;-79
2022/02/26 06:31:50;;;;;;;9.20;4.43;;;;;;;2.09;83.01;97618.78;5087819;28;20048;-79
2022/02/26 06:34:16;;;;;;;9.70;4.05;;;;;;;2.10;84.05;97633.84;5087733;28;20044;-79
2022/02/26 06:36:43;;;;;;;10.40;4.72;;;;;;;2.06;85.29;97632.66;5088375;28;20592;-79
2022/02/26 06:39:11;;;;;;;13.23;3.95;;;;;;;2.03;85.77;97636.59;5094316;28;20079;-80
2022/02/26 06:41:37;;;;;;;8.02;4.05;;;;;;;2.03;86.34;97646.53;5089629;28;20504;-81
2022/02/26 06:44:05;;;;;;;6.40;4.22;;;;;;;2.03;86.72;97646.53;5086254;28;20040;-81
2022/02/26 06:46:35;;;;;;;10.25;4.65;;;;;;;1.97;86.50;97652.84;5088529;28;20494;-79
2022/02/26 06:49:01;;;;;;;12.98;4.80;;;;;;;2.02;87.67;97655.66;5089149;28;20047;-79
2022/02/26 06:51:28;;;;;;;9.50;5.32;;;;;;;1.97;87.31;97652.84;5087849;28;20047;-80
2022/02/26 06:53:54;;;;;;;12.40;4.60;;;;;;;1.98;87.46;97649.91;5090907;28;20786;-79
2022/02/26 06:56:22;;;;;;;14.50;5.00;;;;;;;2.03;87.84;97651.91;5092516;28;20052;-79
2022/02/26 06:58:49;;;;;;;8.52;4.28;;;;;;;1.98;86.23;97649.91;5092503;28;20059;-79
2022/02/26 07:01:16;;;;;;;9.35;4.57;;;;;;;1.98;86.54;97659.84;5091244;28;20054;-82
2022/02/26 07:03:42;;;;;;;11.10;4.63;;;;;;;2.02;87.17;97658.34;5091497;28;20048;-79
2022/02/26 07:06:09;;;;;;;12.52;5.07;;;;;;;2.08;87.67;97665.47;5090865;28;20048;-79
2022/02/26 07:08:35;;;;;;;9.98;4.72;;;;;;;2.07;87.67;97674.59;5092375;28;20036;-80
2022/02/26 07:11:02;;;;;;;10.55;4.70;;;;;;;2.12;87.85;97668.53;5091538;28;20052;-80
2022/02/26 07:13:31;;;;;;;12.18;5.60;;;;;;;2.09;86.82;97676.00;5093325;28;20048;-79
2022/02/26 07:15:58;;;;;;;9.48;4.80;;;;;;;2.10;86.67;97676.81;5093331;28;20052;-79
2022/02/26 07:18:27;;;;;;;8.80;4.75;;;;;;;2.16;86.87;97689.34;5091946;28;20058;-81
2022/02/26 07:20:56;;;;;;;10.18;5.32;;;;;;;2.15;87.57;97686.88;5100214;28;20116;-81
2022/02/26 07:23:24;;;;;;;14.18;6.25;;;;;;;2.05;86.77;97693.63;5098428;28;20040;-81
2022/02/26 07:25:51;;;;;;;15.68;5.57;;;;;;;2.07;86.61;97699.59;5080201;28;20410;-81
2022/02/26 07:28:18;;;;;;;12.93;5.63;;;;;;;2.11;86.31;97704.50;5079862;28;20047;-81
2022/02/26 07:30:53;;;;;;;12.05;4.03;;;;;;;2.07;86.04;97707.66;5078820;28;20058;-81
2022/02/26 07:33:45;;;;;;;8.82;3.90;;;;;;;1.94;85.65;97707.06;5093077;28;20024;-83
2022/02/26 07:36:13;;;;;;;11.23;4.00;;;;;;;1.74;86.42;97708.16;5097433;28;20040;-81
2022/02/26 07:38:41;;;;;;;9.15;4.25;;;;;;;1.67;87.37;97704.75;5085864;28;20049;-80
2022/02/26 07:41:10;;;;;;;8.48;4.40;;;;;;;1.63;88.52;97711.63;5074671;28;20048;-80
2022/02/26 07:43:37;;;;;;;12.75;5.15;;;;;;;1.60;88.85;97712.06;5093302;28;20508;-81
2022/02/26 07:46:08;;;;;;;11.73;5.40;;;;;;;1.63;89.49;97719.66;5091373;28;20803;-81
2022/02/26 07:48:35;;;;;;;10.95;5.47;;;;;;;1.73;90.48;97719.94;5096557;28;20044;-81
2022/02/26 07:51:05;;;;;;;13.63;5.85;;;;;;;1.71;90.56;97719.34;5062121;28;20055;-82
2022/02/26 07:53:32;;;;;;;9.85;5.40;;;;;;;1.73;91.06;97716.44;5107790;28;20058;-81
2022/02/26 07:56:00;;;;;;;15.18;6.32;;;;;;;1.76;91.51;97724.84;5113140;28;20083;-82
2022/02/26 07:58:28;;;;;;;12.82;5.55;;;;;;;1.86;92.10;97726.16;5090476;28;20070;-84
2022/02/26 08:00:57;;;;;;;11.60;5.97;;;;;;;1.90;92.42;97725.47;5114624;28;20056;-81
2022/02/26 08:03:26;;;;;;;13.63;6.07;;;;;;;1.90;92.72;97717.41;5073925;28;20048;-81
2022/02/26 08:05:53;;;;;;;16.17;6.20;;;;;;;1.97;93.12;97723.50;5100913;28;20071;-81
2022/02/26 08:08:22;;;;;;;13.40;6.22;;;;;;;2.04;93.54;97723.44;5101149;28;20040;-82
2022/02/26 08:10:51;;;;;;;11.65;6.18;;;;;;;2.06;93.53;97726.69;5078965;28;20040;-81
2022/02/26 08:13:18;;;;;;;16.48;5.90;;;;;;;2.05;92.58;97730.44;5078087;28;20057;-83
2022/02/26 08:15:45;;;;;;;15.80;5.95;;;;;;;2.09;92.43;97732.44;5094731;28;20668;-80
2022/02/26 08:18:15;;;;;;;10.43;5.80;;;;;;;2.14;91.98;97734.44;5055822;28;20048;-80
2022/02/26 08:20:44;;;;;;;17.13;6.15;;;;;;;2.20;91.78;97738.88;5081091;28;20550;-81
2022/02/26 08:23:12;;;;;;;14.70;5.47;;;;;;;2.30;92.03;97738.31;5057301;28;20048;-82
2022/02/26 08:25:39;;;;;;;15.25;6.43;;;;;;;2.32;92.01;97731.66;5054455;28;20040;-81
2022/02/26 08:28:06;;;;;;;17.88;6.50;;;;;;;2.38;91.87;97739.84;5054129;28;20049;-80
2022/02/26 08:30:33;;;;;;;23.85;15.52;;;;;;;2.44;92.12;97734.34;5074364;28;20047;-81
2022/02/26 08:33:02;;;;;;;19.25;6.90;;;;;;;2.43;90.71;97742.66;5080486;28;20107;-82
2022/02/26 08:35:29;;;;;;;15.80;6.30;;;;;;;2.47;89.99;97733.91;5079172;28;20051;-81
2022/02/26 08:37:57;;;;;;;16.38;6.30;;;;;;;2.51;89.37;97742.34;5059432;28;20052;-81
2022/02/26 08:40:24;;;;;;;15.63;6.90;;;;;;;2.55;89.17;97743.47;5077390;28;20040;-81
2022/02/26 08:42:53;;;;;;;14.05;6.20;;;;;;;2.62;88.43;97741.53;5078567;28;20040;-82
2022/02/26 08:45:21;;;;;;;11.45;6.38;;;;;;;2.79;86.55;97747.81;5097217;28;20048;-82
2022/02/26 08:47:49;;;;;;;13.32;6.53;;;;;;;2.94;87.02;97749.22;5097929;28;20060;-81
2022/02/26 08:50:23;;;;;;;18.13;6.63;;;;;;;3.00;85.34;97748.28;5082119;28;20479;-81
2022/02/26 08:52:50;;;;;;;13.55;6.40;;;;;;;3.07;84.81;97749.78;5065242;28;20051;-81
2022/02/26 08:55:21;;;;;;;15.60;7.07;;;;;;;3.23;87.61;97759.00;5087241;28;20075;-81
2022/02/26 08:57:52;;;;;;;12.30;5.65;;;;;;;3.22;88.28;97760.06;5094641;28;20101;-81
2022/02/26 09:03:00;;;;;;;13.85;5.82;;;;;;;3.29;87.22;97762.63;5080293;28;20443;-80
2022/02/26 09:05:27;;;;;;;13.13;5.78;;;;;;;3.36;87.80;97758.78;5071315;28;20048;-80
2022/02/26 09:07:55;;;;;;;16.10;6.50;;;;;;;3.42;88.19;97762.38;5089393;28;20064;-80
2022/02/26 09:13:52;;;;;;;12.45;5.95;;;;;;;3.79;86.80;97762.88;5089882;28;20032;-85
2022/02/26 09:16:20;;;;;;;16.27;6.28;;;;;;;4.14;87.46;97770.00;5105024;28;20139;-82
2022/02/26 09:41:23;;;;;;;11.48;4.45;;;;;;;5.36;75.65;97760.28;5726143;23;20447;-84
2022/02/26 09:43:58;;;;;;;11.48;4.90;;;;;;;5.42;77.82;97751.19;4908320;29;20055;-83
2022/02/26 09:49:13;;;;;;;13.07;4.38;;;;;;;6.07;77.06;97750.38;4937719;29;20050;-82
2022/02/26 09:51:43;;;;;;;8.63;3.55;;;;;;;6.09;72.33;97747.41;4949696;29;20044;-82
2022/02/26 09:54:11;;;;;;;11.27;3.10;;;;;;;6.08;71.67;97756.59;4937419;29;20044;-82
2022/02/26 09:56:41;;;;;;;7.07;3.33;;;;;;;6.07;72.30;97765.78;4939591;29;20055;-81
2022/02/26 09:59:09;;;;;;;13.07;4.32;;;;;;;6.05;74.68;97762.50;4914131;29;20711;-81
2022/02/26 10:01:37;;;;;;;10.02;3.85;;;;;;;6.04;73.31;97755.47;4917560;29;20055;-81
2022/02/26 10:04:09;;;;;;;10.52;3.20;;;;;;;5.83;74.51;97755.19;4921071;29;20287;-81
2022/02/26 10:06:39;;;;;;;10.13;3.53;;;;;;;5.69;72.93;97762.06;4926900;29;20060;-80
2022/02/26 10:09:11;;;;;;;10.68;2.92;;;;;;;5.71;73.85;97768.03;4933060;29;20055;-81
2022/02/26 10:11:41;;;;;;;9.93;2.75;;;;;;;5.69;72.67;97770.16;4940102;29;20107;-81
2022/02/26 10:14:10;;;;;;;10.57;2.95;;;;;;;5.67;73.64;97773.13;4879671;29;20060;-81
2022/02/26 10:16:45;;;;;;;13.30;3.67;;;;;;;5.59;67.22;97775.47;4899719;29;20053;-80
2022/02/26 10:19:26;;;;;;;8.40;2.70;;;;;;;5.62;71.15;97780.34;4914552;29;20067;-82
2022/02/26 10:21:57;;;;;;;6.93;2.30;;;;;;;5.59;68.25;97770.06;4915778;29;20084;-84
2022/02/26 10:24:40;;;;;;;11.63;4.00;;;;;;;5.60;70.33;97779.81;4912452;29;20048;-83
2022/02/26 10:27:13;;;;;;;7.95;2.78;;;;;;;5.54;66.30;97775.41;4929095;29;20117;-84
2022/02/26 10:32:07;;;;;;;9.60;2.50;;;;;;;5.35;73.18;97775.69;5196776;23;20059;-81
2022/02/26 10:34:35;;;;;;;11.80;2.90;;;;;;;5.24;72.16;97768.50;4940499;29;20075;-82
2022/02/26 10:37:06;;;;;;;10.13;2.60;;;;;;;5.16;70.41;97766.22;4930472;29;20056;-81
2022/02/26 10:39:38;;;;;;;8.48;2.28;;;;;;;5.08;70.48;97775.59;4933710;29;20036;-81
2022/02/26 10:42:08;;;;;;;5.75;1.73;;;;;;;5.09;69.09;97776.41;4934074;29;20048;-79
2022/02/26 10:44:45;;;;;;;10.88;2.55;;;;;;;5.13;71.83;97766.75;4931499;29;20052;-82
2022/02/26 10:49:56;;;;;;;8.67;3.73;;;;;;;5.49;74.19;97762.63;4938769;29;20112;-83
2022/02/26 10:52:26;;;;;;;12.38;3.53;;;;;;;6.36;79.20;97764.44;4937585;29;20280;-81
2022/02/26 10:54:59;;;;;;;11.43;3.83;;;;;;;7.03;77.52;97763.91;4929628;29;20040;-81
2022/02/26 10:57:32;;;;;;;5.72;2.33;;;;;;;7.54;66.43;97764.19;4928640;29;20071;-82
2022/02/26 11:00:01;;;;;;;9.38;3.55;;;;;;;7.53;60.01;97762.56;4938822;29;20056;-81
2022/02/26 11:02:30;;;;;;;17.30;4.97;;;;;;;7.72;63.52;97756.69;4940544;29;20044;-81
2022/02/26 11:04:58;;;;;;;10.00;3.10;;;;;;;7.65;61.45;97764.25;4902192;29;20052;-81
2022/02/26 11:07:26;;;;;;;6.40;2.53;;;;;;;7.45;58.85;97757.63;4918696;29;20059;-80
2022/02/26 11:09:55;;;;;;;10.65;5.05;;;;;;;7.45;61.80;97754.13;4921451;29;20059;-82
2022/02/26 11:12:27;;;;;;;8.93;3.45;;;;;;;7.39;66.86;97750.56;4907781;29;20058;-81
2022/02/26 11:15:06;;;;;;;6.82;2.70;;;;;;;7.20;65.90;97746.66;4925683;29;20074;-82
2022/02/26 11:18:06;;;;;;;7.03;2.20;;;;;;;7.03;61.04;97747.66;4918244;29;20055;-82
2022/02/26 11:20:35;;;;;;;14.88;2.63;;;;;;;7.02;65.05;97746.03;4925412;29;20059;-82
2022/02/26 11:23:05;;;;;;;6.80;2.20;;;;;;;6.84;63.16;97749.16;4919048;29;20088;-83
2022/02/26 11:25:37;;;;;;;12.02;2.10;;;;;;;6.48;59.57;97748.88;4901622;29;20032;-82
2022/02/26 11:28:17;;;;;;;9.20;1.88;;;;;;;6.15;60.84;97743.66;4906077;29;20071;-84
2022/02/26 11:30:53;;;;;;;10.02;2.20;;;;;;;5.85;61.30;97747.66;4926272;29;20044;-83
2022/02/26 11:33:22;;;;;;;10.95;2.58;;;;;;;5.68;63.84;97746.91;4922446;29;20143;-83
2022/02/26 11:36:01;;;;;;;8.68;2.50;;;;;;;5.46;67.30;97747.72;4922865;29;20048;-81
2022/02/26 11:38:34;;;;;;;9.40;2.60;;;;;;;5.30;62.95;97747.78;4920617;29;20078;-80
2022/02/26 11:41:18;;;;;;;;;;;;;;;5.18;60.65;97747.91;4910499;29;20558;-80
2022/02/26 11:43:48;;;;;;;10.50;2.10;;;;;;;5.23;60.97;97742.56;5004810;23;19922;-83
2022/02/26 11:46:20;;;;;;;5.95;1.95;;;;;;;5.12;65.14;97743.50;4926616;28;20102;-81
2022/02/26 11:49:17;;;;;;;7.60;2.17;;;;;;;4.93;65.51;97732.16;4953544;28;20059;-82
2022/02/26 11:51:48;;;;;;;11.68;2.40;;;;;;;4.94;63.16;97729.22;4949332;28;20654;-83
2022/02/26 11:54:17;;;;;;;6.88;2.17;;;;;;;4.83;64.52;97723.91;5022823;23;20063;-83
2022/02/26 11:56:45;;;;;;;7.97;2.00;;;;;;;4.78;61.28;97730.06;4937317;29;20047;-83
2022/02/26 11:59:15;;;;;;;7.20;1.98;;;;;;;4.85;65.97;97727.97;4959155;29;20074;-83
2022/02/26 12:02:05;;;;;;;8.55;2.05;;;;;;;4.88;68.58;97721.28;4958347;29;20051;-84
2022/02/26 12:04:57;;;;;;;5.53;1.80;;;;;;;4.92;66.32;97717.84;4941887;29;20138;-83
2022/02/26 12:07:31;;;;;;;9.98;2.70;;;;;;;5.01;64.20;97717.41;5308788;23;20033;-83
2022/02/26 12:10:00;;;;;;;14.18;2.22;;;;;;;5.05;65.56;97726.66;4921529;29;20048;-82
2022/02/26 12:12:39;;;;;;;11.30;2.00;;;;;;;5.06;63.72;97718.28;4930925;29;20044;-82
2022/02/26 12:15:15;;;;;;;11.15;1.92;;;;;;;4.97;65.16;97726.03;4929583;29;20052;-82
2022/02/26 12:17:45;;;;;;;6.75;1.67;;;;;;;4.93;63.51;97724.06;5029287;23;20110;-82
2022/02/26 12:20:19;;;;;;;9.10;2.05;;;;;;;4.88;66.86;97722.09;4967678;23;20051;-82
2022/02/26 12:22:49;;;;;;;10.40;1.70;;;;;;;4.86;67.29;97718.84;5055545;23;20130;-83